createdAt,value
2023-03-08T00:01:40.319Z,99374.55
2023-03-08T00:05:08.140Z,99377.39
2023-03-08T00:08:16.650Z,99379.44
2023-03-08T00:11:44.571Z,99380.11
2023-03-08T00:15:12.845Z,99368.50
2023-03-08T00:18:21.509Z,99372.36
2023-03-08T00:21:50.307Z,99375.84
2023-03-08T00:25:18.171Z,99373.68
2023-03-08T00:28:46.251Z,99370.27
2023-03-08T00:32:14.119Z,99360.86
2023-03-08T00:35:42.052Z,99356.64
2023-03-08T00:38:51.815Z,99354.98
2023-03-08T00:42:19.649Z,99352.30
2023-03-08T00:45:50.182Z,99356.09
2023-03-08T00:49:15.653Z,99345.95
2023-03-08T00:52:43.777Z,99339.45
2023-03-08T00:56:11.488Z,99340.88
2023-03-08T00:59:20.724Z,99340.10
2023-03-08T01:02:48.569Z,99340.20
2023-03-08T01:06:16.500Z,99343.87
2023-03-08T01:09:44.323Z,99341.17
2023-03-08T01:13:12.172Z,99344.13
2023-03-08T01:16:21.094Z,99332.92
2023-03-08T01:19:49.157Z,99339.93
2023-03-08T01:22:39.167Z,99336.06
2023-03-08T01:25:48.482Z,99333.63
2023-03-08T01:29:16.633Z,99334.98
2023-03-08T01:32:05.297Z,99332.11
2023-03-08T01:35:33.382Z,99332.19
2023-03-08T01:39:01.351Z,99336.14
2023-03-08T01:42:29.226Z,99335.48
2023-03-08T01:45:57.125Z,99335.58
2023-03-08T01:49:24.973Z,99328.73
2023-03-08T01:52:14.620Z,99331.80
2023-03-08T01:55:42.624Z,99331.30
2023-03-08T01:58:51.502Z,99332.04
2023-03-08T02:02:19.658Z,99337.20
2023-03-08T02:05:09.547Z,99337.25
2023-03-08T02:08:38.418Z,99336.52
2023-03-08T02:12:06.762Z,99331.77
2023-03-08T02:15:34.804Z,99334.60
2023-03-08T02:19:02.965Z,99341.05
2023-03-08T02:22:30.690Z,99340.88
2023-03-08T02:25:59.105Z,99344.13
2023-03-08T02:29:27.031Z,99343.56
2023-03-08T02:32:54.881Z,99353.23
2023-03-08T02:36:22.883Z,99349.60
2023-03-08T02:39:51.033Z,99350.31
2023-03-08T02:43:00.154Z,99357.41
2023-03-08T02:46:28.078Z,99361.00
2023-03-08T02:49:19.065Z,99357.49
2023-03-08T02:52:46.947Z,99357.87
2023-03-08T02:55:55.036Z,99359.77
2023-03-08T02:59:04.015Z,99356.15
2023-03-08T03:02:31.903Z,99358.23
2023-03-08T03:05:59.957Z,99362.23
2023-03-08T03:09:08.223Z,99365.50
2023-03-08T03:12:36.100Z,99374.50
2023-03-08T03:16:04.120Z,99374.48
2023-03-08T03:19:13.144Z,99373.02
2023-03-08T03:22:41.108Z,99374.11
2023-03-08T03:26:08.982Z,99375.77
2023-03-08T03:29:36.878Z,99377.42
2023-03-08T03:33:04.693Z,99381.04
2023-03-08T03:35:53.650Z,99384.89
2023-03-08T03:39:02.564Z,99390.67
2023-03-08T03:42:30.565Z,99386.62
2023-03-08T03:45:58.527Z,99396.15
2023-03-08T03:49:26.436Z,99395.34
2023-03-08T03:52:54.488Z,99396.89
2023-03-08T03:56:22.516Z,99395.30
2023-03-08T03:59:31.305Z,99398.38
2023-03-08T04:02:40.167Z,99406.77
2023-03-08T04:06:08.151Z,99407.38
2023-03-08T04:09:18.303Z,99411.80
2023-03-08T04:12:46.572Z,99416.23
2023-03-08T04:15:55.575Z,99416.34
2023-03-08T04:19:23.566Z,99419.58
2023-03-08T04:22:51.554Z,99425.14
2023-03-08T04:26:19.484Z,99428.54
2023-03-08T04:29:47.779Z,99427.83
2023-03-08T04:32:57.059Z,99430.89
2023-03-08T04:36:25.209Z,99432.01
2023-03-08T04:39:53.023Z,99431.95
2023-03-08T04:43:02.067Z,99434.70
2023-03-08T04:46:30.088Z,99437.27
2023-03-08T04:49:57.946Z,99434.97
2023-03-08T04:53:25.927Z,99437.71
2023-03-08T04:56:54.957Z,99438.11
2023-03-08T05:00:04.007Z,99443.20
2023-03-08T05:03:12.661Z,99445.92
2023-03-08T05:06:40.549Z,99444.52
2023-03-08T05:10:12.403Z,99443.17
2023-03-08T05:13:21.307Z,99444.02
2023-03-08T05:16:49.396Z,99442.45
2023-03-08T05:19:38.933Z,99442.44
2023-03-08T05:22:58.241Z,99442.70
2023-03-08T05:26:15.681Z,99448.94
2023-03-08T05:29:43.581Z,99452.86
2023-03-08T05:32:52.971Z,99455.02
2023-03-08T05:36:22.180Z,99452.86
2023-03-08T05:39:50.043Z,99452.52
2023-03-08T05:43:19.168Z,99453.02
2023-03-08T05:46:48.489Z,99451.59
2023-03-08T05:49:59.173Z,99455.59
2023-03-08T05:53:27.253Z,99459.52
2023-03-08T05:56:54.988Z,99462.80
2023-03-08T06:00:22.952Z,99462.45
2023-03-08T06:03:50.732Z,99466.70
2023-03-08T06:07:19.044Z,99476.75
2023-03-08T06:10:46.838Z,99479.16
2023-03-08T06:14:14.539Z,99483.18
2023-03-08T06:17:03.866Z,99487.06
2023-03-08T06:20:31.789Z,99496.96
2023-03-08T06:23:28.436Z,99507.23
2023-03-08T06:26:37.093Z,99512.55
2023-03-08T06:30:04.921Z,99517.58
2023-03-08T06:33:32.906Z,99510.96
2023-03-08T06:37:00.775Z,99515.42
2023-03-08T06:40:28.754Z,99520.44
2023-03-08T06:43:37.610Z,99532.58
2023-03-08T06:47:05.754Z,99537.52
2023-03-08T06:50:33.541Z,99545.35
2023-03-08T06:54:01.628Z,99556.06
2023-03-08T06:57:29.720Z,99563.46
2023-03-08T07:00:57.808Z,99566.89
2023-03-08T07:04:25.628Z,99562.80
2023-03-08T07:07:53.537Z,99558.80
2023-03-08T07:11:21.296Z,99559.67
2023-03-08T07:14:49.357Z,99554.81
2023-03-08T07:18:17.245Z,99550.79
2023-03-08T07:21:45.055Z,99556.84
2023-03-08T07:25:01.157Z,99558.69
2023-03-08T07:28:09.799Z,99573.11
2023-03-08T07:31:37.475Z,99567.72
2023-03-08T07:35:05.804Z,99570.55
2023-03-08T07:38:33.783Z,99582.02
2023-03-08T07:41:42.658Z,99585.27
2023-03-08T07:44:51.710Z,99590.95
2023-03-08T07:48:19.691Z,99599.32
2023-03-08T07:51:29.741Z,99655.08
2023-03-08T07:54:57.667Z,99614.91
2023-03-08T07:58:25.573Z,99626.63
2023-03-08T08:01:53.356Z,99643.85
2023-03-08T08:05:22.076Z,99627.73
2023-03-08T08:08:50.081Z,99628.77
2023-03-08T08:12:18.441Z,99653.34
2023-03-08T08:15:46.520Z,99646.23
2023-03-08T08:18:16.084Z,99651.40
2023-03-08T08:21:26.383Z,99637.27
2023-03-08T08:24:52.297Z,99637.09
2023-03-08T08:28:01.280Z,99637.16
2023-03-08T08:31:29.379Z,99637.77
2023-03-08T08:34:06.415Z,99638.93
2023-03-08T08:37:15.296Z,99646.00
2023-03-08T08:40:23.652Z,99646.66
2023-03-08T08:43:32.532Z,99642.52
2023-03-08T08:46:23.239Z,99644.70
2023-03-08T08:48:55.272Z,99644.55
2023-03-08T08:52:10.651Z,99649.83
2023-03-08T08:54:39.028Z,99653.20
2023-03-08T08:57:08.540Z,99656.42
2023-03-08T08:59:38.496Z,99659.26
2023-03-08T09:02:07.294Z,99663.86
2023-03-08T09:04:59.137Z,99661.05
2023-03-08T09:07:27.038Z,99660.92
2023-03-08T09:10:54.965Z,99657.89
2023-03-08T09:14:22.597Z,99660.48
2023-03-08T09:17:50.383Z,99658.77
2023-03-08T09:21:18.354Z,99657.09
2023-03-08T09:24:46.207Z,99655.81
2023-03-08T09:27:34.927Z,99654.80
2023-03-08T09:31:02.634Z,99656.33
2023-03-08T09:33:52.571Z,99649.30
2023-03-08T09:37:08.534Z,99642.35
2023-03-08T09:40:18.127Z,99642.39
2023-03-08T09:43:46.061Z,99646.17
2023-03-08T09:47:13.919Z,99647.61
2023-03-08T09:50:26.294Z,99646.45
2023-03-08T09:53:54.079Z,99650.14
2023-03-08T09:57:21.839Z,99652.98
2023-03-08T10:00:49.677Z,99666.11
2023-03-08T10:04:17.499Z,99668.21
2023-03-08T10:07:45.380Z,99674.01
2023-03-08T10:11:13.108Z,99676.52
2023-03-08T10:14:40.982Z,99679.89
2023-03-08T10:18:08.788Z,99683.36
2023-03-08T10:21:36.430Z,99688.38
2023-03-08T10:25:04.294Z,99696.48
2023-03-08T10:28:20.486Z,99693.08
2023-03-08T10:31:48.677Z,99695.81
2023-03-08T10:35:16.877Z,99697.96
2023-03-08T10:38:16.659Z,99695.73
2023-03-08T10:41:27.474Z,99695.26
2023-03-08T10:44:57.447Z,99687.74
2023-03-08T10:48:25.406Z,99682.34
2023-03-08T10:51:53.497Z,99674.84
2023-03-08T10:55:21.249Z,99669.73
2023-03-08T10:58:30.111Z,99665.13
2023-03-08T11:01:58.726Z,99668.13
2023-03-08T11:05:27.039Z,99656.01
2023-03-08T11:08:31.524Z,99653.02
2023-03-08T11:12:00.345Z,99643.48
2023-03-08T11:15:10.645Z,99641.52
2023-03-08T11:18:40.679Z,99637.98
2023-03-08T11:21:49.345Z,99629.70
2023-03-08T11:25:17.480Z,99628.02
2023-03-08T11:28:26.379Z,99622.58
2023-03-08T11:31:35.015Z,99614.82
2023-03-08T11:35:02.847Z,99612.75
2023-03-08T11:38:30.973Z,99609.64
2023-03-08T11:41:59.328Z,99608.85
2023-03-08T11:45:07.993Z,99605.95
2023-03-08T11:48:35.758Z,99607.30
2023-03-08T11:51:24.710Z,99605.66
2023-03-08T11:54:15.976Z,99606.63
2023-03-08T11:57:43.970Z,99603.79
2023-03-08T12:00:51.733Z,99601.46
2023-03-08T12:04:19.846Z,99597.30
2023-03-08T12:07:45.228Z,99595.70
2023-03-08T12:11:09.441Z,99595.20
2023-03-08T12:14:37.075Z,99592.88
2023-03-08T12:18:04.933Z,99600.98
2023-03-08T12:21:33.160Z,99597.35
2023-03-08T12:24:41.168Z,99596.26
2023-03-08T12:27:49.879Z,99592.54
2023-03-08T12:30:59.423Z,99586.82
2023-03-08T12:34:11.364Z,99580.15
2023-03-08T12:37:34.469Z,99574.03
2023-03-08T12:41:02.705Z,99573.90
2023-03-08T12:44:11.757Z,99569.16
2023-03-08T12:47:20.142Z,99564.20
2023-03-08T12:50:48.373Z,99559.27
2023-03-08T12:54:16.242Z,99558.71
2023-03-08T12:57:44.106Z,99554.11
2023-03-08T13:00:43.662Z,99553.63
2023-03-08T13:04:11.571Z,99554.31
2023-03-08T13:07:22.910Z,99547.08
2023-03-08T13:10:35.258Z,99546.57
2023-03-08T13:13:58.993Z,99546.12
2023-03-08T13:17:26.989Z,99542.34
2023-03-08T13:20:54.887Z,99540.48
2023-03-08T13:24:04.661Z,99533.43
2023-03-08T13:26:57.097Z,99531.84
2023-03-08T13:30:25.042Z,99531.72
2023-03-08T13:33:53.100Z,99523.84
2023-03-08T13:36:41.730Z,99521.03
2023-03-08T13:40:09.721Z,99519.17
2023-03-08T13:43:37.742Z,99514.39
2023-03-08T13:47:05.740Z,99513.92
2023-03-08T13:50:33.673Z,99514.12
2023-03-08T13:54:01.294Z,99510.65
2023-03-08T13:57:29.083Z,99500.92
2023-03-08T14:00:39.176Z,99490.79
2023-03-08T14:04:07.162Z,99482.73
2023-03-08T14:07:36.917Z,99482.39
2023-03-08T14:11:16.274Z,99487.02
2023-03-08T14:14:07.423Z,99481.07
2023-03-08T14:16:35.753Z,99479.50
2023-03-08T14:20:03.585Z,99478.98
2023-03-08T14:22:59.741Z,99469.90
2023-03-08T14:26:09.478Z,99467.66
2023-03-08T14:29:01.674Z,99465.70
2023-03-08T14:31:51.539Z,99460.17
2023-03-08T14:35:19.676Z,99456.23
2023-03-08T14:38:10.730Z,99452.38
2023-03-08T14:41:19.406Z,99456.39
2023-03-08T14:44:35.048Z,99448.45
2023-03-08T14:47:23.865Z,99436.64
2023-03-08T14:50:51.485Z,99439.42
2023-03-08T14:54:00.187Z,99439.71
2023-03-08T14:57:28.098Z,99434.11
2023-03-08T15:00:38.470Z,99433.60
2023-03-08T15:04:08.488Z,99434.11
2023-03-08T15:07:17.024Z,99426.78
2023-03-08T15:10:25.215Z,99419.15
2023-03-08T15:13:14.535Z,99420.40
2023-03-08T15:16:42.845Z,99421.00
2023-03-08T15:20:00.108Z,99422.21
2023-03-08T15:23:10.078Z,99417.71
2023-03-08T15:26:37.948Z,99416.78
2023-03-08T15:30:05.837Z,99421.80
2023-03-08T15:33:13.588Z,99421.91
2023-03-08T15:36:41.357Z,99423.10
2023-03-08T15:40:09.334Z,99418.96
2023-03-08T15:43:13.580Z,99421.64
2023-03-08T15:46:41.863Z,99422.05
2023-03-08T15:49:51.727Z,99424.53
2023-03-08T15:53:00.702Z,99421.16
2023-03-08T15:56:05.064Z,99413.66
2023-03-08T15:59:13.845Z,99412.95
2023-03-08T16:02:02.738Z,99414.70
2023-03-08T16:05:11.570Z,99408.57
2023-03-08T16:08:10.347Z,99404.61
2023-03-08T16:11:38.048Z,99403.28
2023-03-08T16:15:05.984Z,99396.55
2023-03-08T16:18:14.478Z,99398.15
2023-03-08T16:21:42.525Z,99396.05
2023-03-08T16:25:06.114Z,99395.13
2023-03-08T16:28:33.614Z,99391.52
2023-03-08T16:31:49.240Z,99391.45
2023-03-08T16:35:17.299Z,99400.91
2023-03-08T16:38:15.496Z,99400.69
2023-03-08T16:41:43.456Z,99404.74
2023-03-08T16:44:55.400Z,99404.96
2023-03-08T16:48:23.280Z,99404.50
2023-03-08T16:51:47.477Z,99411.36
2023-03-08T16:55:15.410Z,99413.09
2023-03-08T16:58:20.523Z,99411.94
2023-03-08T17:01:13.114Z,99413.87
2023-03-08T17:04:40.965Z,99418.98
2023-03-08T17:08:04.414Z,99415.63
2023-03-08T17:11:32.556Z,99418.32
2023-03-08T17:15:00.374Z,99418.42
2023-03-08T17:18:09.319Z,99420.35
2023-03-08T17:21:37.647Z,99424.33
2023-03-08T17:25:01.319Z,99428.84
2023-03-08T17:28:24.879Z,99426.02
2023-03-08T17:31:48.580Z,99424.94
2023-03-08T17:35:16.429Z,99423.44
2023-03-08T17:38:44.332Z,99422.31
2023-03-08T17:41:58.474Z,99426.54
2023-03-08T17:45:07.567Z,99429.13
2023-03-08T17:48:35.502Z,99429.95
2023-03-08T17:51:24.792Z,99427.76
2023-03-08T17:54:33.546Z,99421.29
2023-03-08T17:58:01.340Z,99416.19
2023-03-08T18:01:11.468Z,99413.95
2023-03-08T18:04:23.512Z,99417.04
2023-03-08T18:07:27.719Z,99412.27
2023-03-08T18:10:55.352Z,99417.33
2023-03-08T18:14:04.535Z,99419.54
2023-03-08T18:17:13.642Z,99416.41
2023-03-08T18:20:22.770Z,99419.06
2023-03-08T18:23:50.406Z,99420.11
2023-03-08T18:27:18.535Z,99415.03
2023-03-08T18:30:27.582Z,99405.89
2023-03-08T18:33:43.160Z,99401.10
2023-03-08T18:37:10.855Z,99396.41
2023-03-08T18:40:38.941Z,99390.72
2023-03-08T18:43:50.717Z,99385.16
2023-03-08T18:47:14.456Z,99388.89
2023-03-08T18:50:19.797Z,99383.86
2023-03-08T18:53:48.367Z,99376.47
2023-03-08T18:57:06.116Z,99377.23
2023-03-08T19:00:14.408Z,99375.81
2023-03-08T19:03:38.983Z,99381.16
2023-03-08T19:06:48.639Z,99381.54
2023-03-08T19:10:16.373Z,99379.20
2023-03-08T19:13:43.046Z,99381.26
2023-03-08T19:17:11.329Z,99379.96
2023-03-08T19:20:39.319Z,99379.30
2023-03-08T19:23:48.133Z,99380.72
2023-03-08T19:26:58.225Z,99381.59
2023-03-08T19:30:25.973Z,99382.41
2023-03-08T19:33:53.954Z,99383.05
2023-03-08T19:37:22.768Z,99388.41
2023-03-08T19:40:12.893Z,99387.94
2023-03-08T19:43:25.836Z,99392.58
2023-03-08T19:46:53.698Z,99397.18
2023-03-08T19:50:02.568Z,99399.02
2023-03-08T19:53:30.438Z,99394.70
2023-03-08T19:56:58.273Z,99387.50
2023-03-08T20:00:26.019Z,99395.14
2023-03-08T20:03:37.970Z,99397.70
2023-03-08T20:07:05.966Z,99392.61
2023-03-08T20:10:33.834Z,99390.79
2023-03-08T20:14:01.778Z,99398.59
2023-03-08T20:17:25.243Z,99406.98
2023-03-08T20:20:15.088Z,99407.20
2023-03-08T20:23:19.930Z,99403.71
2023-03-08T20:26:47.799Z,99401.86
2023-03-08T20:30:11.899Z,99402.82
2023-03-08T20:33:16.642Z,99407.07
2023-03-08T20:36:25.345Z,99398.55
2023-03-08T20:39:33.997Z,99393.88
2023-03-08T20:42:59.030Z,99394.00
2023-03-08T20:46:07.859Z,99392.25
2023-03-08T20:49:35.693Z,99388.67
2023-03-08T20:52:48.377Z,99389.89
2023-03-08T20:55:59.860Z,99394.67
2023-03-08T20:59:15.661Z,99392.73
2023-03-08T21:02:39.558Z,99392.89
2023-03-08T21:06:07.458Z,99386.21
2023-03-08T21:09:32.561Z,99401.22
2023-03-08T21:12:22.542Z,99394.27
2023-03-08T21:15:50.718Z,99394.73
2023-03-08T21:19:18.475Z,99399.65
2023-03-08T21:22:46.230Z,99400.73
2023-03-08T21:26:14.313Z,99402.08
2023-03-08T21:29:42.378Z,99395.46
2023-03-08T21:33:10.173Z,99391.90
2023-03-08T21:36:38.022Z,99385.01
2023-03-08T21:39:45.898Z,99394.83
2023-03-08T21:43:13.640Z,99400.06
2023-03-08T21:46:41.586Z,99398.98
2023-03-08T21:50:10.095Z,99395.99
2023-03-08T21:53:37.318Z,99389.13
2023-03-08T21:57:05.222Z,99388.15
2023-03-08T22:00:16.856Z,99387.70
2023-03-08T22:03:44.810Z,99386.60
2023-03-08T22:06:35.703Z,99383.30
2023-03-08T22:09:51.490Z,99384.28
2023-03-08T22:13:03.086Z,99385.58
2023-03-08T22:16:31.476Z,99385.02
2023-03-08T22:19:59.382Z,99379.66
2023-03-08T22:22:49.108Z,99375.48
2023-03-08T22:26:16.879Z,99377.84
2023-03-08T22:29:44.848Z,99370.40
2023-03-08T22:33:12.576Z,99364.85
2023-03-08T22:36:40.357Z,99364.10
2023-03-08T22:39:55.995Z,99364.61
2023-03-08T22:43:11.860Z,99364.69
2023-03-08T22:46:39.722Z,99366.84
2023-03-08T22:50:07.405Z,99365.79
2023-03-08T22:52:56.192Z,99362.89
2023-03-08T22:56:01.489Z,99355.91
2023-03-08T22:58:47.957Z,99356.77
2023-03-08T23:01:38.150Z,99356.38
2023-03-08T23:05:05.926Z,99354.43
2023-03-08T23:08:33.872Z,99354.37
2023-03-08T23:12:01.713Z,99351.89
2023-03-08T23:15:29.645Z,99358.48
2023-03-08T23:18:57.434Z,99354.31
2023-03-08T23:22:07.141Z,99360.02
2023-03-08T23:25:16.688Z,99360.51
2023-03-08T23:28:25.179Z,99363.48
2023-03-08T23:31:34.910Z,99361.08
2023-03-08T23:34:42.803Z,99361.24
2023-03-08T23:37:59.756Z,99362.78
2023-03-08T23:41:29.312Z,99361.82
2023-03-08T23:44:44.877Z,99358.36
2023-03-08T23:48:12.629Z,99353.48
2023-03-08T23:51:40.965Z,99354.95
2023-03-08T23:55:08.924Z,99355.31
2023-03-08T23:58:18.716Z,99355.21
